createdAt,value
2018-06-23T00:00:41.612Z,439.20
2018-06-23T00:01:41.687Z,413.60
2018-06-23T00:02:41.729Z,422.20
2018-06-23T00:03:41.780Z,409.50
2018-06-23T00:04:41.802Z,444.40
2018-06-23T00:05:41.879Z,435.10
2018-06-23T00:06:41.931Z,431.50
2018-06-23T00:07:41.934Z,444.10
2018-06-23T00:08:41.983Z,450.50
2018-06-23T00:09:42.034Z,440.00
2018-06-23T00:10:42.086Z,447.40
2018-06-23T00:11:42.120Z,439.60
2018-06-23T00:12:42.156Z,464.10
2018-06-23T00:13:42.211Z,457.40
2018-06-23T00:14:42.242Z,468.30
2018-06-23T00:15:42.558Z,460.10
2018-06-23T00:16:42.345Z,493.10
2018-06-23T00:17:42.392Z,442.90
2018-06-23T00:18:42.427Z,478.10
2018-06-23T00:19:42.477Z,501.90
2018-06-23T00:20:42.549Z,492.60
2018-06-23T00:21:42.573Z,495.90
2018-06-23T00:22:42.615Z,508.60
2018-06-23T00:23:42.667Z,513.00
2018-06-23T00:24:42.711Z,502.20
2018-06-23T00:25:42.774Z,523.70
2018-06-23T00:26:42.782Z,520.50
2018-06-23T00:27:42.851Z,513.60
2018-06-23T00:28:42.882Z,511.00
2018-06-23T00:29:42.903Z,539.10
2018-06-23T00:30:43.001Z,521.30
2018-06-23T00:31:43.027Z,544.40
2018-06-23T00:32:43.053Z,557.70
2018-06-23T00:33:43.108Z,551.30
2018-06-23T00:34:43.137Z,593.70
2018-06-23T00:35:43.229Z,588.00
2018-06-23T00:36:43.257Z,596.70
2018-06-23T00:37:43.303Z,592.00
2018-06-23T00:38:43.509Z,617.40
2018-06-23T00:39:43.358Z,648.00
2018-06-23T00:40:43.454Z,683.10
2018-06-23T00:41:43.438Z,674.40
2018-06-23T00:42:43.495Z,735.30
2018-06-23T00:43:43.549Z,707.70
2018-06-23T00:44:43.569Z,701.60
2018-06-23T00:45:43.666Z,666.50
2018-06-23T00:46:43.695Z,684.20
2018-06-23T00:47:43.731Z,678.90
2018-06-23T00:48:43.761Z,690.50
2018-06-23T00:49:43.827Z,684.90
2018-06-23T00:50:43.856Z,676.40
2018-06-23T00:51:43.899Z,690.80
2018-06-23T00:52:43.967Z,684.60
2018-06-23T00:53:43.978Z,709.90
2018-06-23T00:54:44.017Z,681.10
2018-06-23T00:55:44.085Z,675.30
2018-06-23T00:56:44.110Z,688.00
2018-06-23T00:57:44.195Z,697.40
2018-06-23T00:58:44.231Z,700.80
2018-06-23T00:59:44.269Z,670.10
2018-06-23T01:00:44.329Z,659.40
2018-06-23T01:01:44.328Z,679.60
2018-06-23T01:02:44.392Z,672.90
2018-06-23T01:03:44.425Z,679.60
2018-06-23T01:04:44.495Z,633.00
2018-06-23T01:05:44.537Z,545.80
2018-06-23T01:06:44.563Z,563.80
2018-06-23T01:07:44.626Z,608.50
2018-06-23T01:08:44.663Z,587.90
2018-06-23T01:09:44.725Z,553.00
2018-06-23T01:10:44.754Z,524.40
2018-06-23T01:11:44.811Z,542.90
2018-06-23T01:12:44.824Z,569.90
2018-06-23T01:13:44.866Z,609.70
2018-06-23T01:14:44.928Z,611.70
2018-06-23T01:15:44.973Z,614.50
2018-06-23T01:16:45.022Z,619.30
2018-06-23T01:17:45.083Z,533.50
2018-06-23T01:18:45.118Z,554.40
2018-06-23T01:19:45.169Z,594.70
2018-06-23T01:20:45.210Z,602.00
2018-06-23T01:21:45.219Z,616.80
2018-06-23T01:22:45.272Z,627.60
2018-06-23T01:23:45.349Z,619.90
2018-06-23T01:24:45.345Z,607.40
2018-06-23T01:25:45.433Z,593.80
2018-06-23T01:26:45.483Z,615.40
2018-06-23T01:27:45.484Z,598.40
2018-06-23T01:28:45.549Z,611.60
2018-06-23T01:29:45.603Z,594.20
2018-06-23T01:30:45.644Z,628.20
2018-06-23T01:31:45.682Z,600.80
2018-06-23T01:32:45.739Z,640.60
2018-06-23T01:33:45.779Z,638.50
2018-06-23T01:34:45.813Z,606.60
2018-06-23T01:35:45.863Z,631.00
2018-06-23T01:36:45.911Z,641.90
2018-06-23T01:37:45.956Z,671.50
2018-06-23T01:38:46.017Z,645.70
2018-06-23T01:39:46.053Z,670.90
2018-06-23T01:40:46.067Z,628.10
2018-06-23T01:41:46.132Z,560.70
2018-06-23T01:42:46.170Z,557.50
2018-06-23T01:43:46.238Z,606.50
2018-06-23T01:44:46.276Z,585.20
2018-06-23T01:45:46.317Z,609.90
2018-06-23T01:46:46.333Z,620.30
2018-06-23T01:47:46.577Z,630.60
2018-06-23T01:48:46.441Z,637.50
2018-06-23T01:49:46.493Z,630.70
2018-06-23T01:50:46.553Z,665.80
2018-06-23T01:51:46.595Z,626.00
2018-06-23T01:52:46.607Z,649.30
2018-06-23T01:53:46.668Z,624.10
2018-06-23T01:54:46.732Z,652.70
2018-06-23T01:55:46.771Z,599.90
2018-06-23T01:56:46.813Z,589.10
2018-06-23T01:57:46.866Z,588.40
2018-06-23T01:58:47.087Z,574.50
2018-06-23T01:59:46.904Z,593.00
2018-06-23T02:00:46.994Z,576.80
2018-06-23T02:01:47.012Z,602.10
2018-06-23T02:02:47.052Z,623.30
2018-06-23T02:03:47.136Z,593.30
2018-06-23T02:04:47.178Z,584.70
2018-06-23T02:05:47.176Z,602.50
2018-06-23T02:06:47.232Z,598.00
2018-06-23T02:07:47.294Z,607.40
2018-06-23T02:08:47.314Z,631.10
2018-06-23T02:09:47.660Z,612.40
2018-06-23T02:10:47.411Z,594.20
2018-06-23T02:11:47.468Z,609.30
2018-06-23T02:12:47.518Z,628.20
2018-06-23T02:13:47.554Z,655.70
2018-06-23T02:14:47.622Z,624.60
2018-06-23T02:15:47.627Z,594.20
2018-06-23T02:16:47.683Z,616.50
2018-06-23T02:17:47.733Z,632.00
2018-06-23T02:18:47.749Z,614.90
2018-06-23T02:19:47.923Z,565.20
2018-06-23T02:20:48.120Z,587.40
2018-06-23T02:21:47.908Z,620.60
2018-06-23T02:22:47.936Z,595.30
2018-06-23T02:23:47.994Z,645.10
2018-06-23T02:24:48.034Z,588.90
2018-06-23T02:25:48.085Z,589.70
2018-06-23T02:26:48.158Z,600.10
2018-06-23T02:27:48.172Z,592.20
2018-06-23T02:28:48.221Z,547.10
2018-06-23T02:29:48.260Z,547.40
2018-06-23T02:30:48.392Z,606.20
2018-06-23T02:31:48.382Z,622.70
2018-06-23T02:32:48.380Z,594.80
2018-06-23T02:33:48.429Z,595.40
2018-06-23T02:34:48.507Z,617.30
2018-06-23T02:35:48.551Z,643.50
2018-06-23T02:36:48.814Z,608.10
2018-06-23T02:37:48.625Z,603.80
2018-06-23T02:38:48.666Z,617.60
2018-06-23T02:39:48.711Z,642.10
2018-06-23T02:40:48.722Z,658.10
2018-06-23T02:41:48.880Z,655.50
2018-06-23T02:42:48.846Z,644.50
2018-06-23T02:43:48.859Z,644.90
2018-06-23T02:44:48.938Z,654.60
2018-06-23T02:45:48.962Z,698.20
2018-06-23T02:46:49.028Z,678.80
2018-06-23T02:47:49.051Z,698.20
2018-06-23T02:48:49.095Z,685.00
2018-06-23T02:49:49.178Z,678.20
2018-06-23T02:50:49.200Z,689.90
2018-06-23T02:51:49.316Z,671.10
2018-06-23T02:52:49.308Z,671.10
2018-06-23T02:53:49.331Z,704.60
2018-06-23T02:54:49.401Z,713.40
2018-06-23T02:55:49.407Z,671.60
2018-06-23T02:56:49.441Z,658.60
2018-06-23T02:57:49.481Z,690.80
2018-06-23T02:58:49.781Z,697.80
2018-06-23T02:59:49.579Z,707.90
2018-06-23T03:00:49.639Z,691.60
2018-06-23T03:01:49.687Z,688.80
2018-06-23T03:02:49.710Z,684.00
2018-06-23T03:03:49.869Z,709.80
2018-06-23T03:04:49.843Z,690.60
2018-06-23T03:05:49.874Z,693.80
2018-06-23T03:06:49.914Z,713.20
2018-06-23T03:07:49.949Z,700.90
2018-06-23T03:08:49.980Z,701.60
2018-06-23T03:09:50.219Z,718.80
2018-06-23T03:10:50.052Z,699.30
2018-06-23T03:11:50.119Z,715.80
2018-06-23T03:12:50.139Z,706.20
2018-06-23T03:13:50.184Z,690.20
2018-06-23T03:14:50.238Z,709.40
2018-06-23T03:15:50.294Z,731.30
2018-06-23T03:16:50.338Z,729.90
2018-06-23T03:17:50.383Z,730.20
2018-06-23T03:18:50.424Z,726.00
2018-06-23T03:19:50.454Z,724.40
2018-06-23T03:20:50.502Z,715.30
2018-06-23T03:21:50.563Z,688.60
2018-06-23T03:22:50.596Z,723.20
2018-06-23T03:23:50.662Z,707.10
2018-06-23T03:24:50.695Z,720.80
2018-06-23T03:25:51.006Z,725.10
2018-06-23T03:26:50.787Z,756.60
2018-06-23T03:27:50.824Z,712.90
2018-06-23T03:28:50.868Z,658.20
2018-06-23T03:29:50.901Z,724.40
2018-06-23T03:30:50.957Z,701.30
2018-06-23T03:31:50.998Z,710.20
2018-06-23T03:32:51.034Z,760.20
2018-06-23T03:33:51.082Z,734.30
2018-06-23T03:34:51.143Z,731.70
2018-06-23T03:35:51.148Z,696.30
2018-06-23T03:36:51.205Z,730.30
2018-06-23T03:37:51.249Z,722.20
2018-06-23T03:38:51.276Z,697.10
2018-06-23T03:39:51.341Z,708.50
2018-06-23T03:40:51.382Z,716.60
2018-06-23T03:41:51.425Z,709.70
2018-06-23T03:42:51.482Z,721.10
2018-06-23T03:43:51.679Z,731.90
2018-06-23T03:44:51.559Z,733.50
2018-06-23T03:45:51.640Z,743.50
2018-06-23T03:46:51.875Z,704.20
2018-06-23T03:47:51.729Z,749.50
2018-06-23T03:48:51.715Z,709.40
2018-06-23T03:49:51.752Z,715.30
2018-06-23T03:50:51.828Z,728.10
2018-06-23T03:51:51.883Z,750.30
2018-06-23T03:52:51.929Z,709.10
2018-06-23T03:53:51.943Z,730.90
2018-06-23T03:54:51.999Z,695.60
2018-06-23T03:55:52.016Z,701.20
2018-06-23T03:56:52.071Z,695.00
2018-06-23T03:57:52.121Z,718.60
2018-06-23T03:58:52.156Z,718.90
2018-06-23T03:59:52.205Z,726.30
2018-06-23T04:00:52.241Z,727.00
2018-06-23T04:01:52.283Z,712.60
2018-06-23T04:02:52.357Z,696.50
2018-06-23T04:03:52.383Z,711.80
2018-06-23T04:04:52.457Z,699.90
2018-06-23T04:05:52.465Z,714.30
2018-06-23T04:06:52.531Z,727.80
2018-06-23T04:07:52.564Z,710.30
2018-06-23T04:08:52.609Z,691.90
2018-06-23T04:09:52.665Z,712.30
2018-06-23T04:10:52.887Z,743.40
2018-06-23T04:11:52.727Z,720.70
2018-06-23T04:12:52.790Z,734.50
2018-06-23T04:13:52.840Z,711.60
2018-06-23T04:14:52.875Z,713.40
2018-06-23T04:15:52.906Z,742.30
2018-06-23T04:16:53.048Z,725.10
2018-06-23T04:17:53.004Z,733.80
2018-06-23T04:18:53.041Z,713.90
2018-06-23T04:19:53.110Z,742.20
2018-06-23T04:20:53.142Z,731.00
2018-06-23T04:21:53.174Z,733.10
2018-06-23T04:22:53.425Z,748.80
2018-06-23T04:23:53.255Z,736.30
2018-06-23T04:24:53.289Z,752.60
2018-06-23T04:25:53.358Z,750.00
2018-06-23T04:26:53.382Z,754.10
2018-06-23T04:27:53.439Z,731.60
2018-06-23T04:28:53.487Z,742.80
2018-06-23T04:29:53.526Z,736.80
2018-06-23T04:30:53.574Z,720.80
2018-06-23T04:31:53.616Z,740.40
2018-06-23T04:32:53.653Z,750.90
2018-06-23T04:33:53.717Z,754.10
2018-06-23T04:34:53.947Z,763.50
2018-06-23T04:35:53.786Z,739.70
2018-06-23T04:36:53.807Z,768.00
2018-06-23T04:37:53.860Z,781.80
2018-06-23T04:38:53.904Z,770.40
2018-06-23T04:39:53.950Z,751.40
2018-06-23T04:40:53.970Z,745.50
2018-06-23T04:41:54.028Z,773.90
2018-06-23T04:42:54.065Z,760.40
2018-06-23T04:43:54.134Z,757.70
2018-06-23T04:44:54.179Z,744.60
2018-06-23T04:45:54.196Z,766.30
2018-06-23T04:46:54.438Z,747.90
2018-06-23T04:47:54.300Z,758.80
2018-06-23T04:48:54.329Z,782.70
2018-06-23T04:49:54.374Z,807.30
2018-06-23T04:50:54.422Z,788.80
2018-06-23T04:51:54.484Z,774.80
2018-06-23T04:52:54.486Z,771.30
2018-06-23T04:53:54.572Z,781.40
2018-06-23T04:54:54.587Z,778.00
2018-06-23T04:55:54.628Z,772.40
2018-06-23T04:56:54.703Z,789.60
2018-06-23T04:57:54.713Z,773.70
2018-06-23T04:58:54.760Z,781.20
2018-06-23T04:59:54.813Z,796.20
2018-06-23T05:00:54.834Z,796.80
2018-06-23T05:01:54.899Z,793.40
2018-06-23T05:02:54.966Z,778.60
2018-06-23T05:03:54.990Z,787.00
2018-06-23T05:04:55.032Z,802.20
2018-06-23T05:05:55.071Z,807.70
2018-06-23T05:06:55.126Z,799.60
2018-06-23T05:07:55.148Z,806.40
2018-06-23T05:08:55.197Z,815.00
2018-06-23T05:09:55.477Z,798.90
2018-06-23T05:10:55.294Z,810.40
2018-06-23T05:11:55.333Z,818.50
2018-06-23T05:12:55.351Z,808.00
2018-06-23T05:13:55.417Z,813.40
2018-06-23T05:14:55.476Z,811.90
2018-06-23T05:15:55.500Z,829.70
2018-06-23T05:16:55.554Z,795.20
2018-06-23T05:17:55.617Z,833.60
2018-06-23T05:18:55.645Z,802.10
2018-06-23T05:19:55.676Z,829.00
2018-06-23T05:20:55.714Z,816.10
2018-06-23T05:21:56.012Z,818.10
2018-06-23T05:22:55.826Z,819.60
2018-06-23T05:23:55.857Z,812.60
2018-06-23T05:24:55.903Z,818.80
2018-06-23T05:25:55.972Z,816.20
2018-06-23T05:26:55.987Z,846.20
2018-06-23T05:27:56.025Z,854.30
2018-06-23T05:28:56.047Z,852.40
2018-06-23T05:29:56.120Z,864.90
2018-06-23T05:30:56.163Z,844.60
2018-06-23T05:31:56.218Z,879.20
2018-06-23T05:32:56.240Z,860.30
2018-06-23T05:33:56.307Z,869.80
2018-06-23T05:34:56.308Z,860.50
2018-06-23T05:35:56.378Z,878.10
2018-06-23T05:36:56.420Z,857.90
2018-06-23T05:37:56.665Z,872.50
2018-06-23T05:38:56.493Z,876.70
2018-06-23T05:39:56.559Z,889.40
2018-06-23T05:40:56.586Z,910.60
2018-06-23T05:41:56.626Z,886.60
2018-06-23T05:42:56.664Z,877.40
2018-06-23T05:43:56.738Z,915.30
2018-06-23T05:44:56.785Z,882.90
2018-06-23T05:45:56.791Z,890.90
2018-06-23T05:46:56.867Z,885.40
2018-06-23T05:47:56.866Z,886.20
2018-06-23T05:48:56.956Z,879.70
2018-06-23T05:49:57.146Z,909.00
2018-06-23T05:50:57.011Z,903.10
2018-06-23T05:51:57.056Z,912.20
2018-06-23T05:52:57.093Z,906.70
2018-06-23T05:53:57.155Z,897.20
2018-06-23T05:54:57.179Z,910.30
2018-06-23T05:55:57.226Z,899.30
2018-06-23T05:56:57.265Z,903.90
2018-06-23T05:57:57.307Z,890.00
2018-06-23T05:58:57.377Z,919.30
2018-06-23T05:59:57.406Z,926.70
2018-06-23T06:00:57.641Z,916.20
2018-06-23T06:01:57.488Z,907.00
2018-06-23T06:02:57.513Z,894.20
2018-06-23T06:03:57.567Z,905.00
2018-06-23T06:04:57.607Z,917.10
2018-06-23T06:05:57.663Z,914.60
2018-06-23T06:06:57.739Z,917.30
2018-06-23T06:07:57.717Z,947.60
2018-06-23T06:08:57.799Z,927.60
2018-06-23T06:09:57.847Z,935.30
2018-06-23T06:10:57.880Z,912.60
2018-06-23T06:11:57.911Z,952.20
2018-06-23T06:12:57.955Z,926.10
2018-06-23T06:13:58.009Z,914.50
2018-06-23T06:14:58.022Z,909.70
2018-06-23T06:15:58.317Z,940.10
2018-06-23T06:16:58.130Z,917.30
2018-06-23T06:17:58.184Z,917.20
2018-06-23T06:18:58.198Z,901.70
2018-06-23T06:19:58.250Z,916.40
2018-06-23T06:20:58.295Z,914.30
2018-06-23T06:21:58.319Z,933.10
2018-06-23T06:22:58.387Z,909.40
2018-06-23T06:23:58.407Z,915.30
2018-06-23T06:24:58.449Z,922.10
2018-06-23T06:25:58.502Z,925.60
2018-06-23T06:26:58.554Z,921.30
2018-06-23T06:27:58.603Z,927.40
2018-06-23T06:28:58.653Z,919.10
2018-06-23T06:29:58.691Z,926.50
2018-06-23T06:30:58.949Z,922.20
2018-06-23T06:31:58.779Z,923.40
2018-06-23T06:32:58.802Z,919.70
2018-06-23T06:33:58.868Z,915.60
2018-06-23T06:34:58.865Z,926.30
2018-06-23T06:35:58.932Z,918.70
2018-06-23T06:36:58.980Z,915.50
2018-06-23T06:37:59.014Z,922.40
2018-06-23T06:38:59.062Z,926.40
2018-06-23T06:39:59.127Z,911.70
2018-06-23T06:40:59.139Z,918.80
2018-06-23T06:41:59.167Z,924.40
2018-06-23T06:42:59.232Z,920.40
2018-06-23T06:43:59.287Z,910.70
2018-06-23T06:44:59.332Z,909.50
2018-06-23T06:45:59.372Z,911.60
2018-06-23T06:46:59.401Z,927.60
2018-06-23T06:47:59.647Z,902.20
2018-06-23T06:48:59.502Z,915.90
2018-06-23T06:49:59.515Z,893.70
2018-06-23T06:50:59.576Z,893.60
2018-06-23T06:51:59.631Z,880.20
2018-06-23T06:52:59.661Z,912.70
2018-06-23T06:53:59.703Z,882.20
2018-06-23T06:54:59.768Z,887.70
2018-06-23T06:55:59.793Z,899.90
2018-06-23T06:56:59.858Z,899.40
2018-06-23T06:57:59.865Z,897.10
2018-06-23T06:58:59.917Z,882.00
2018-06-23T06:59:59.956Z,883.80
2018-06-23T07:00:59.992Z,883.80
2018-06-23T07:02:00.021Z,888.60
2018-06-23T07:03:00.066Z,907.10
2018-06-23T07:04:00.113Z,889.90
2018-06-23T07:05:00.161Z,888.30
2018-06-23T07:06:00.190Z,896.10
2018-06-23T07:07:00.263Z,902.70
2018-06-23T07:08:00.330Z,885.00
2018-06-23T07:09:00.587Z,880.40
2018-06-23T07:10:00.387Z,862.30
2018-06-23T07:11:00.428Z,876.60
2018-06-23T07:12:00.467Z,884.90
2018-06-23T07:13:00.507Z,851.70
2018-06-23T07:14:00.529Z,862.90
2018-06-23T07:15:00.579Z,882.00
2018-06-23T07:16:00.627Z,866.10
2018-06-23T07:17:00.666Z,885.80
2018-06-23T07:18:00.695Z,852.70
2018-06-23T07:19:00.772Z,865.50
2018-06-23T07:20:00.802Z,855.30
2018-06-23T07:21:00.871Z,860.70
2018-06-23T07:22:00.909Z,858.10
2018-06-23T07:23:00.917Z,845.40
2018-06-23T07:24:01.377Z,878.00
2018-06-23T07:25:01.008Z,857.50
2018-06-23T07:26:01.041Z,864.20
2018-06-23T07:27:01.109Z,865.90
2018-06-23T07:28:01.140Z,857.10
2018-06-23T07:29:01.184Z,869.50
2018-06-23T07:30:01.219Z,839.50
2018-06-23T07:31:01.249Z,863.70
2018-06-23T07:32:01.309Z,847.70
2018-06-23T07:33:01.324Z,831.40
2018-06-23T07:34:01.398Z,824.50
2018-06-23T07:35:01.796Z,838.00
2018-06-23T07:36:01.484Z,824.80
2018-06-23T07:37:01.544Z,826.00
2018-06-23T07:38:01.587Z,833.20
2018-06-23T07:39:01.617Z,844.80
2018-06-23T07:40:01.688Z,825.90
2018-06-23T07:41:01.713Z,827.70
2018-06-23T07:42:01.741Z,830.80
2018-06-23T07:43:01.792Z,816.20
2018-06-23T07:44:01.816Z,832.20
2018-06-23T07:45:01.872Z,849.10
2018-06-23T07:46:01.933Z,822.50
2018-06-23T07:47:02.206Z,827.80
2018-06-23T07:48:02.006Z,839.00
2018-06-23T07:49:02.059Z,828.30
2018-06-23T07:50:02.059Z,862.80
2018-06-23T07:51:02.114Z,829.00
2018-06-23T07:52:02.177Z,841.00
2018-06-23T07:53:02.196Z,831.90
2018-06-23T07:54:02.273Z,815.90
2018-06-23T07:55:02.297Z,813.00
2018-06-23T07:56:02.319Z,848.60
2018-06-23T07:57:02.363Z,834.50
2018-06-23T07:58:02.621Z,837.70
2018-06-23T07:59:02.452Z,833.20
2018-06-23T08:00:02.491Z,826.10
2018-06-23T08:01:02.556Z,823.50
2018-06-23T08:02:02.607Z,826.10
2018-06-23T08:03:02.634Z,818.30
2018-06-23T08:04:02.651Z,791.60
2018-06-23T08:05:02.705Z,829.20
2018-06-23T08:06:02.750Z,805.80
2018-06-23T08:07:02.777Z,796.30
2018-06-23T08:08:02.818Z,797.50
2018-06-23T08:09:02.879Z,787.80
2018-06-23T08:10:02.925Z,779.90
2018-06-23T08:11:02.973Z,794.40
2018-06-23T08:12:03.031Z,801.70
2018-06-23T08:13:03.060Z,780.20
2018-06-23T08:14:03.299Z,793.90
2018-06-23T08:15:03.159Z,789.80
2018-06-23T08:16:03.173Z,807.00
2018-06-23T08:17:03.208Z,782.20
2018-06-23T08:18:03.269Z,791.20
2018-06-23T08:19:03.299Z,799.70
2018-06-23T08:20:03.375Z,802.50
2018-06-23T08:21:03.383Z,772.30
2018-06-23T08:22:03.402Z,763.80
2018-06-23T08:23:03.437Z,789.30
2018-06-23T08:24:03.521Z,767.90
2018-06-23T08:25:03.855Z,792.90
2018-06-23T08:26:03.582Z,774.10
2018-06-23T08:27:03.640Z,773.50
2018-06-23T08:28:03.673Z,779.00
2018-06-23T08:29:03.750Z,781.20
2018-06-23T08:30:03.759Z,773.90
2018-06-23T08:31:03.835Z,749.90
2018-06-23T08:32:04.047Z,782.20
2018-06-23T08:33:03.896Z,779.70
2018-06-23T08:34:03.921Z,778.00
2018-06-23T08:35:03.969Z,768.60
2018-06-23T08:36:04.028Z,762.30
2018-06-23T08:37:04.064Z,781.70
2018-06-23T08:38:04.113Z,775.70
2018-06-23T08:39:04.152Z,795.30
2018-06-23T08:40:04.179Z,768.60
2018-06-23T08:41:04.250Z,766.30
2018-06-23T08:42:04.277Z,763.60
2018-06-23T08:43:04.513Z,744.50
2018-06-23T08:44:04.342Z,765.10
2018-06-23T08:45:04.408Z,750.60
2018-06-23T08:46:04.454Z,744.50
2018-06-23T08:47:04.488Z,751.30
2018-06-23T08:48:04.528Z,763.30
2018-06-23T08:49:04.653Z,753.00
2018-06-23T08:50:04.610Z,770.00
2018-06-23T08:51:04.666Z,742.70
2018-06-23T08:52:04.676Z,748.20
2018-06-23T08:53:04.734Z,758.20
2018-06-23T08:54:04.793Z,735.30
2018-06-23T08:55:05.039Z,745.40
2018-06-23T08:56:04.861Z,757.90
2018-06-23T08:57:04.897Z,747.70
2018-06-23T08:58:04.945Z,741.20
2018-06-23T08:59:05.006Z,725.70
2018-06-23T09:00:05.041Z,742.70
2018-06-23T09:01:05.057Z,771.50
2018-06-23T09:02:05.146Z,749.30
2018-06-23T09:03:05.189Z,765.50
2018-06-23T09:04:05.210Z,770.30
2018-06-23T09:05:05.277Z,740.30
2018-06-23T09:06:05.289Z,753.50
2018-06-23T09:07:05.346Z,776.50
2018-06-23T09:08:05.357Z,732.20
2018-06-23T09:09:05.429Z,756.30
2018-06-23T09:10:05.473Z,742.20
2018-06-23T09:11:05.522Z,754.40
2018-06-23T09:12:05.558Z,763.30
2018-06-23T09:13:05.764Z,725.50
2018-06-23T09:14:05.634Z,733.70
2018-06-23T09:15:05.692Z,736.00
2018-06-23T09:16:05.742Z,744.40
2018-06-23T09:17:05.743Z,744.40
2018-06-23T09:18:05.836Z,763.30
2018-06-23T09:19:05.850Z,750.40
2018-06-23T09:20:05.897Z,754.30
2018-06-23T09:21:05.927Z,744.30
2018-06-23T09:22:06.005Z,736.50
2018-06-23T09:23:06.004Z,744.00
2018-06-23T09:24:06.065Z,755.70
2018-06-23T09:25:06.112Z,716.10
2018-06-23T09:26:06.167Z,751.80
2018-06-23T09:27:06.201Z,780.00
2018-06-23T09:28:06.227Z,762.70
2018-06-23T09:29:06.299Z,756.50
2018-06-23T09:30:06.318Z,770.90
2018-06-23T09:31:06.370Z,763.80
2018-06-23T09:32:06.627Z,757.90
2018-06-23T09:33:06.458Z,741.30
2018-06-23T09:34:06.478Z,738.20
2018-06-23T09:35:06.555Z,732.00
2018-06-23T09:36:06.568Z,710.10
2018-06-23T09:37:06.631Z,729.20
2018-06-23T09:38:06.650Z,693.40
2018-06-23T09:39:06.707Z,719.10
2018-06-23T09:40:06.760Z,669.50
2018-06-23T09:41:06.781Z,689.30
2018-06-23T09:42:06.846Z,673.90
2018-06-23T09:43:07.070Z,815.80
2018-06-23T09:44:06.933Z,821.90
2018-06-23T09:45:06.937Z,825.40
2018-06-23T09:46:06.994Z,804.40
2018-06-23T09:47:07.073Z,808.10
2018-06-23T09:48:07.073Z,786.30
2018-06-23T09:49:07.129Z,795.70
2018-06-23T09:50:07.190Z,789.00
2018-06-23T09:51:07.244Z,805.50
2018-06-23T09:52:07.251Z,776.70
2018-06-23T09:53:07.297Z,779.80
2018-06-23T09:54:07.334Z,736.90
2018-06-23T09:55:07.647Z,791.60
2018-06-23T09:56:07.445Z,789.60
2018-06-23T09:57:07.490Z,801.60
2018-06-23T09:58:07.532Z,793.70
2018-06-23T09:59:07.580Z,792.20
2018-06-23T10:00:07.621Z,812.80
2018-06-23T10:01:07.643Z,788.60
2018-06-23T10:02:07.681Z,783.40
2018-06-23T10:03:07.777Z,804.90
2018-06-23T10:04:07.795Z,781.50
2018-06-23T10:05:07.815Z,802.30
2018-06-23T10:06:08.060Z,816.10
2018-06-23T10:07:07.882Z,808.70
2018-06-23T10:08:07.945Z,810.60
2018-06-23T10:09:08.018Z,798.60
2018-06-23T10:10:08.038Z,781.60
2018-06-23T10:11:08.077Z,753.50
2018-06-23T10:12:08.135Z,771.10
2018-06-23T10:13:08.166Z,736.00
2018-06-23T10:14:08.225Z,750.60
2018-06-23T10:15:08.252Z,733.00
2018-06-23T10:16:08.293Z,734.40
2018-06-23T10:17:08.340Z,695.10
2018-06-23T10:18:08.394Z,721.20
2018-06-23T10:19:08.427Z,758.00
2018-06-23T10:20:08.493Z,715.50
2018-06-23T10:21:08.725Z,715.00
2018-06-23T10:22:08.544Z,701.20
2018-06-23T10:23:08.599Z,711.90
2018-06-23T10:24:08.620Z,696.70
2018-06-23T10:25:08.682Z,684.20
2018-06-23T10:26:08.740Z,686.90
2018-06-23T10:27:08.781Z,677.60
2018-06-23T10:28:08.809Z,676.00
2018-06-23T10:29:08.886Z,704.50
2018-06-23T10:30:08.882Z,702.20
2018-06-23T10:31:08.946Z,695.50
2018-06-23T10:32:08.988Z,737.70
2018-06-23T10:33:09.030Z,701.80
2018-06-23T10:34:09.069Z,699.80
2018-06-23T10:35:09.111Z,712.40
2018-06-23T10:36:09.139Z,707.30
2018-06-23T10:37:09.204Z,700.20
2018-06-23T10:38:09.253Z,694.30
2018-06-23T10:39:09.283Z,728.70
2018-06-23T10:40:09.459Z,745.70
2018-06-23T10:41:09.366Z,743.40
2018-06-23T10:42:09.429Z,749.30
2018-06-23T10:43:09.458Z,745.00
2018-06-23T10:44:09.528Z,784.40
2018-06-23T10:45:09.533Z,735.90
2018-06-23T10:46:09.614Z,759.70
2018-06-23T10:47:09.647Z,743.30
2018-06-23T10:48:09.676Z,720.30
2018-06-23T10:49:09.741Z,766.30
2018-06-23T10:50:09.754Z,781.10
2018-06-23T10:51:09.784Z,768.20
2018-06-23T10:52:09.836Z,835.30
2018-06-23T10:53:09.897Z,769.30
2018-06-23T10:54:09.960Z,754.10
2018-06-23T10:55:09.970Z,729.10
2018-06-23T10:56:10.031Z,721.10
2018-06-23T10:57:10.066Z,747.80
2018-06-23T10:58:10.111Z,796.80
2018-06-23T10:59:10.166Z,751.40
2018-06-23T11:00:10.196Z,758.10
2018-06-23T11:01:10.241Z,767.90
2018-06-23T11:02:10.308Z,732.90
2018-06-23T11:03:10.331Z,722.40
2018-06-23T11:04:10.623Z,763.10
2018-06-23T11:05:10.432Z,707.50
2018-06-23T11:06:10.485Z,742.20
2018-06-23T11:07:10.499Z,787.10
2018-06-23T11:08:10.573Z,744.00
2018-06-23T11:09:10.591Z,695.40
2018-06-23T11:10:10.657Z,717.70
2018-06-23T11:11:10.691Z,684.20
2018-06-23T11:12:10.726Z,698.50
2018-06-23T11:13:10.778Z,644.40
2018-06-23T11:14:10.816Z,641.90
2018-06-23T11:15:10.863Z,652.60
2018-06-23T11:16:10.912Z,646.00
2018-06-23T11:17:10.955Z,596.50
2018-06-23T11:18:11.013Z,602.70
2018-06-23T11:19:11.059Z,639.40
2018-06-23T11:20:11.104Z,636.90
2018-06-23T11:21:11.180Z,591.20
2018-06-23T11:22:11.187Z,578.20
2018-06-23T11:23:11.208Z,590.00
2018-06-23T11:24:11.281Z,576.20
2018-06-23T11:25:11.297Z,574.00
2018-06-23T11:26:11.360Z,557.50
2018-06-23T11:27:11.424Z,520.70
2018-06-23T11:28:11.457Z,461.70
2018-06-23T11:29:11.521Z,481.80
2018-06-23T11:30:11.546Z,484.50
2018-06-23T11:31:11.608Z,510.80
2018-06-23T11:32:11.707Z,515.10
2018-06-23T11:33:11.696Z,489.40
2018-06-23T11:34:11.748Z,522.70
2018-06-23T11:35:11.790Z,508.40
2018-06-23T11:36:11.817Z,506.40
2018-06-23T11:37:11.856Z,473.60
2018-06-23T11:38:11.900Z,483.30
2018-06-23T11:39:11.977Z,461.80
2018-06-23T11:40:12.005Z,478.90
2018-06-23T11:41:12.062Z,498.10
2018-06-23T11:42:12.084Z,475.30
2018-06-23T11:43:12.129Z,491.20
2018-06-23T11:44:12.178Z,482.60
2018-06-23T11:45:12.249Z,474.70
2018-06-23T11:46:12.275Z,478.50
2018-06-23T11:47:12.339Z,542.60
2018-06-23T11:48:12.347Z,460.20
2018-06-23T11:49:12.402Z,468.20
2018-06-23T11:50:12.459Z,506.20
2018-06-23T11:51:12.505Z,396.10
2018-06-23T11:52:12.617Z,458.70
2018-06-23T11:53:12.624Z,421.30
2018-06-23T11:54:12.651Z,462.10
2018-06-23T11:55:12.683Z,446.40
2018-06-23T11:56:12.724Z,436.00
2018-06-23T11:57:12.765Z,435.20
2018-06-23T11:58:12.817Z,419.50
2018-06-23T11:59:12.854Z,420.00
2018-06-23T12:00:12.902Z,446.50
2018-06-23T12:01:12.929Z,461.70
2018-06-23T12:02:13.024Z,426.90
2018-06-23T12:03:13.064Z,421.50
2018-06-23T12:04:13.120Z,442.10
2018-06-23T12:05:13.149Z,416.40
2018-06-23T12:06:13.187Z,469.90
2018-06-23T12:07:13.245Z,483.60
2018-06-23T12:08:13.289Z,580.30
2018-06-23T12:09:13.351Z,466.90
2018-06-23T12:10:13.366Z,466.90
2018-06-23T12:11:13.624Z,498.10
2018-06-23T12:12:13.451Z,498.50
2018-06-23T12:13:13.530Z,489.10
2018-06-23T12:14:13.571Z,524.10
2018-06-23T12:15:13.581Z,504.30
2018-06-23T12:16:13.645Z,496.50
2018-06-23T12:17:13.705Z,494.50
2018-06-23T12:18:13.752Z,493.20
2018-06-23T12:19:13.765Z,477.50
2018-06-23T12:20:13.926Z,477.60
2018-06-23T12:21:13.897Z,510.20
2018-06-23T12:22:13.952Z,486.80
2018-06-23T12:23:13.984Z,508.40
2018-06-23T12:24:14.042Z,481.90
2018-06-23T12:25:14.071Z,471.00
2018-06-23T12:26:14.089Z,437.80
2018-06-23T12:27:14.147Z,444.40
2018-06-23T12:28:14.191Z,415.20
2018-06-23T12:29:14.237Z,318.10